NOZ557 EFHK-ENGM
Flight info
| Callsign | NOZ557 |
|---|---|
| Flight time | N/A |
| Altitude | 36000 |
| Route | ADIV5C ADIVO Y365 POGOK DCT POKAS DCT EBURI N623 ESEBA ESEB4L |
| Aircraft | B738/M-SDE2E3FGHIRWXY/LB1 |
Departure
| Time | 2026-04-22 19:20 |
|---|---|
| Airport | Helsinki Vantaa Airport (EFHK) |
Arrival
| Time | N/A |
|---|---|
| Airport | Oslo-Gardermoen International Airport (ENGM) |
| Time | Latitude | Longitude | Altitude | Speed | Heading |
|---|---|---|---|---|---|
| 2026-04-22 18:40 | 60.31947 | 24.96928 | 165 ft | 0 kts | 242° |
| 2026-04-22 19:08 | 60.31957 | 24.96970 | 165 ft | 4 kts | 253° |
| 2026-04-22 19:08 | 60.31961 | 24.97022 | 165 ft | 4 kts | 279° |
| 2026-04-22 19:08 | 60.31951 | 24.97063 | 165 ft | 2 kts | 331° |
| 2026-04-22 19:09 | 60.31949 | 24.97066 | 165 ft | 0 kts | 333° |
| 2026-04-22 19:11 | 60.31959 | 24.97056 | 165 ft | 6 kts | 333° |
| 2026-04-22 19:12 | 60.32029 | 24.96982 | 165 ft | 14 kts | 332° |
| 2026-04-22 19:12 | 60.32113 | 24.96888 | 165 ft | 13 kts | 330° |
| 2026-04-22 19:12 | 60.32192 | 24.96794 | 165 ft | 13 kts | 330° |
| 2026-04-22 19:12 | 60.32245 | 24.96715 | 165 ft | 10 kts | 296° |
| 2026-04-22 19:13 | 60.32220 | 24.96600 | 167 ft | 10 kts | 228° |
| 2026-04-22 19:13 | 60.32163 | 24.96473 | 167 ft | 14 kts | 227° |
| 2026-04-22 19:13 | 60.32084 | 24.96302 | 167 ft | 19 kts | 227° |
| 2026-04-22 19:13 | 60.31994 | 24.96102 | 168 ft | 19 kts | 228° |
| 2026-04-22 19:14 | 60.31905 | 24.95906 | 169 ft | 19 kts | 227° |
| 2026-04-22 19:14 | 60.31818 | 24.95716 | 169 ft | 18 kts | 227° |
| 2026-04-22 19:14 | 60.31735 | 24.95533 | 170 ft | 17 kts | 227° |
| 2026-04-22 19:14 | 60.31652 | 24.95352 | 169 ft | 18 kts | 227° |
| 2026-04-22 19:15 | 60.31596 | 24.95229 | 169 ft | 18 kts | 227° |
| 2026-04-22 19:15 | 60.31483 | 24.94977 | 167 ft | 19 kts | 227° |
| 2026-04-22 19:15 | 60.31387 | 24.94765 | 163 ft | 22 kts | 227° |
| 2026-04-22 19:15 | 60.31277 | 24.94524 | 158 ft | 25 kts | 227° |
| 2026-04-22 19:16 | 60.31179 | 24.94307 | 158 ft | 20 kts | 227° |
| 2026-04-22 19:16 | 60.31085 | 24.94100 | 156 ft | 18 kts | 227° |
| 2026-04-22 19:16 | 60.31032 | 24.93980 | 157 ft | 4 kts | 235° |
| 2026-04-22 19:16 | 60.31025 | 24.93954 | 158 ft | 0 kts | 246° |
| 2026-04-22 19:17 | 60.31025 | 24.93908 | 158 ft | 7 kts | 286° |
| 2026-04-22 19:17 | 60.31042 | 24.93852 | 158 ft | 0 kts | 302° |
| 2026-04-22 19:18 | 60.31058 | 24.93802 | 158 ft | 10 kts | 307° |
| 2026-04-22 19:18 | 60.31124 | 24.93684 | 156 ft | 6 kts | 323° |
| 2026-04-22 19:18 | 60.31150 | 24.93682 | 157 ft | 2 kts | 27° |
| 2026-04-22 19:18 | 60.31156 | 24.93696 | 157 ft | 0 kts | 49° |
| 2026-04-22 19:19 | 60.31162 | 24.93710 | 157 ft | 10 kts | 49° |
| 2026-04-22 19:19 | 60.31387 | 24.94203 | 160 ft | 85 kts | 48° |
| 2026-04-22 19:20 | 60.31946 | 24.95433 | 172 ft | 150 kts | 48° |
| 2026-04-22 19:20 | 60.32709 | 24.97193 | 484 ft | 178 kts | 49° |
| 2026-04-22 19:20 | 60.33506 | 24.99147 | 1320 ft | 178 kts | 41° |
| 2026-04-22 19:20 | 60.34334 | 25.00967 | 2189 ft | 180 kts | 40° |
| 2026-04-22 19:21 | 60.35261 | 25.02905 | 2772 ft | 204 kts | 39° |
| 2026-04-22 19:21 | 60.36318 | 25.05070 | 3045 ft | 228 kts | 40° |
| 2026-04-22 19:21 | 60.37441 | 25.07496 | 3524 ft | 242 kts | 42° |
| 2026-04-22 19:21 | 60.38629 | 25.10128 | 3921 ft | 262 kts | 42° |
| 2026-04-22 19:22 | 60.40054 | 25.12371 | 4696 ft | 258 kts | 15° |
| 2026-04-22 19:22 | 60.41774 | 25.12967 | 5732 ft | 248 kts | 359° |
| 2026-04-22 19:22 | 60.43504 | 25.13040 | 6688 ft | 249 kts | 357° |
| 2026-04-22 19:22 | 60.45229 | 25.13059 | 7545 ft | 253 kts | 357° |
| 2026-04-22 19:23 | 60.46997 | 25.13015 | 8402 ft | 255 kts | 350° |
| 2026-04-22 19:23 | 60.48644 | 25.11762 | 9233 ft | 256 kts | 325° |
| 2026-04-22 19:23 | 60.49888 | 25.09170 | 10045 ft | 262 kts | 305° |
| 2026-04-22 19:23 | 60.50615 | 25.05655 | 10445 ft | 287 kts | 283° |
| 2026-04-22 19:24 | 60.50589 | 25.01390 | 10699 ft | 319 kts | 261° |
| 2026-04-22 19:24 | 60.49874 | 24.97040 | 11315 ft | 331 kts | 253° |
| 2026-04-22 19:24 | 60.49007 | 24.92681 | 12071 ft | 335 kts | 252° |
| 2026-04-22 19:24 | 60.48101 | 24.88275 | 12757 ft | 343 kts | 251° |
| 2026-04-22 19:25 | 60.47177 | 24.83782 | 13495 ft | 347 kts | 251° |
| 2026-04-22 19:25 | 60.46263 | 24.79304 | 14222 ft | 350 kts | 252° |
| 2026-04-22 19:25 | 60.45333 | 24.74712 | 14916 ft | 354 kts | 252° |
| 2026-04-22 19:25 | 60.44398 | 24.70063 | 15557 ft | 358 kts | 252° |
| 2026-04-22 19:26 | 60.43454 | 24.65357 | 16220 ft | 363 kts | 252° |
| 2026-04-22 19:26 | 60.42500 | 24.60594 | 16897 ft | 367 kts | 252° |
| 2026-04-22 19:26 | 60.41534 | 24.55776 | 17559 ft | 372 kts | 252° |
| 2026-04-22 19:26 | 60.40555 | 24.50903 | 18224 ft | 376 kts | 252° |
| 2026-04-22 19:27 | 60.39565 | 24.45984 | 18758 ft | 381 kts | 252° |
| 2026-04-22 19:27 | 60.38558 | 24.40989 | 19274 ft | 386 kts | 252° |
| 2026-04-22 19:27 | 60.37547 | 24.35993 | 19805 ft | 392 kts | 252° |
| 2026-04-22 19:27 | 60.36507 | 24.30866 | 20324 ft | 397 kts | 252° |
| 2026-04-22 19:28 | 60.35452 | 24.25677 | 20830 ft | 402 kts | 252° |
| 2026-04-22 19:28 | 60.34382 | 24.20425 | 21330 ft | 407 kts | 252° |
| 2026-04-22 19:28 | 60.33296 | 24.15111 | 21798 ft | 412 kts | 251° |
| 2026-04-22 19:28 | 60.32196 | 24.09733 | 22261 ft | 417 kts | 251° |
| 2026-04-22 19:29 | 60.31077 | 24.04289 | 22709 ft | 423 kts | 251° |
| 2026-04-22 19:29 | 60.29958 | 23.98775 | 23226 ft | 426 kts | 253° |
| 2026-04-22 19:29 | 60.29115 | 23.93046 | 23675 ft | 427 kts | 261° |
| 2026-04-22 19:29 | 60.28485 | 23.87259 | 24084 ft | 430 kts | 262° |
| 2026-04-22 19:30 | 60.28074 | 23.83272 | 24364 ft | 432 kts | 262° |
| 2026-04-22 19:30 | 60.27265 | 23.75378 | 24887 ft | 437 kts | 262° |
| 2026-04-22 19:30 | 60.26634 | 23.69364 | 25281 ft | 441 kts | 262° |
| 2026-04-22 19:30 | 60.25983 | 23.63307 | 25673 ft | 444 kts | 262° |
| 2026-04-22 19:31 | 60.25315 | 23.57203 | 26037 ft | 448 kts | 262° |
| 2026-04-22 19:31 | 60.24631 | 23.51053 | 26411 ft | 452 kts | 262° |
| 2026-04-22 19:31 | 60.23937 | 23.44864 | 26795 ft | 455 kts | 262° |
| 2026-04-22 19:31 | 60.23234 | 23.38633 | 27163 ft | 458 kts | 262° |
| 2026-04-22 19:32 | 60.22523 | 23.32357 | 27479 ft | 462 kts | 262° |
| 2026-04-22 19:32 | 60.21813 | 23.26110 | 27776 ft | 466 kts | 262° |
| 2026-04-22 19:32 | 60.21084 | 23.19730 | 28122 ft | 469 kts | 262° |
| 2026-04-22 19:32 | 60.20348 | 23.13316 | 28482 ft | 472 kts | 262° |
| 2026-04-22 19:33 | 60.19605 | 23.06867 | 28814 ft | 475 kts | 261° |
| 2026-04-22 19:33 | 60.18853 | 23.00377 | 29145 ft | 478 kts | 261° |
| 2026-04-22 19:33 | 60.18093 | 22.93843 | 29447 ft | 482 kts | 261° |
| 2026-04-22 19:33 | 60.17327 | 22.87283 | 29752 ft | 485 kts | 261° |
| 2026-04-22 19:34 | 60.16550 | 22.80668 | 30017 ft | 488 kts | 261° |
| 2026-04-22 19:34 | 60.15776 | 22.74101 | 30277 ft | 491 kts | 261° |
| 2026-04-22 19:34 | 60.14984 | 22.67414 | 30550 ft | 493 kts | 261° |
| 2026-04-22 19:34 | 60.14185 | 22.60701 | 30806 ft | 495 kts | 261° |
| 2026-04-22 19:35 | 60.13381 | 22.53971 | 31108 ft | 496 kts | 261° |
| 2026-04-22 19:35 | 60.12574 | 22.47230 | 31320 ft | 499 kts | 261° |
| 2026-04-22 19:35 | 60.12035 | 22.42724 | 31376 ft | 503 kts | 261° |
| 2026-04-22 19:35 | 60.10933 | 22.33574 | 31726 ft | 505 kts | 261° |
| 2026-04-22 19:36 | 60.10105 | 22.26744 | 32123 ft | 503 kts | 261° |
| 2026-04-22 19:36 | 60.09275 | 22.19938 | 32484 ft | 502 kts | 261° |
| 2026-04-22 19:36 | 60.08442 | 22.13133 | 32765 ft | 504 kts | 261° |
| 2026-04-22 19:36 | 60.07616 | 22.06402 | 33029 ft | 505 kts | 261° |
| 2026-04-22 19:37 | 60.06778 | 21.99612 | 33479 ft | 501 kts | 261° |
| 2026-04-22 19:37 | 60.05939 | 21.92858 | 33894 ft | 499 kts | 261° |
| 2026-04-22 19:37 | 60.05098 | 21.86112 | 34145 ft | 500 kts | 261° |
| 2026-04-22 19:37 | 60.04253 | 21.79354 | 34366 ft | 501 kts | 261° |
| 2026-04-22 19:38 | 60.03405 | 21.72600 | 34637 ft | 500 kts | 261° |
| 2026-04-22 19:38 | 60.02554 | 21.65857 | 34832 ft | 502 kts | 261° |
| 2026-04-22 19:38 | 60.01694 | 21.59066 | 34914 ft | 506 kts | 261° |
| 2026-04-22 19:38 | 60.00827 | 21.52248 | 35146 ft | 505 kts | 260° |
| 2026-04-22 19:39 | 59.99970 | 21.45563 | 35540 ft | 501 kts | 260° |
| 2026-04-22 19:39 | 59.99229 | 21.38826 | 35977 ft | 492 kts | 267° |
| 2026-04-22 19:39 | 59.98952 | 21.32073 | 36084 ft | 487 kts | 276° |
| 2026-04-22 19:40 | 59.99018 | 21.18565 | 36094 ft | 485 kts | 277° |
| 2026-04-22 19:40 | 59.99105 | 21.05182 | 36098 ft | 479 kts | 277° |
| 2026-04-22 19:41 | 59.99129 | 20.91884 | 36089 ft | 478 kts | 276° |
| 2026-04-22 19:41 | 59.99113 | 20.78692 | 36116 ft | 478 kts | 276° |
| 2026-04-22 19:42 | 59.99077 | 20.65393 | 36122 ft | 479 kts | 276° |
| 2026-04-22 19:42 | 59.99030 | 20.52055 | 36132 ft | 481 kts | 276° |
| 2026-04-22 19:43 | 59.98935 | 20.32055 | 36136 ft | 484 kts | 276° |
| 2026-04-22 19:43 | 59.98854 | 20.18588 | 36114 ft | 485 kts | 276° |
| 2026-04-22 19:44 | 59.98758 | 20.05088 | 36130 ft | 487 kts | 275° |
| 2026-04-22 19:44 | 59.98649 | 19.91553 | 36136 ft | 488 kts | 275° |
| 2026-04-22 19:45 | 59.98527 | 19.78077 | 36133 ft | 489 kts | 275° |
| 2026-04-22 19:45 | 59.98390 | 19.64495 | 36150 ft | 489 kts | 275° |
| 2026-04-22 19:46 | 59.98240 | 19.50915 | 36149 ft | 489 kts | 275° |
| 2026-04-22 19:46 | 59.98074 | 19.37364 | 36149 ft | 488 kts | 275° |
| 2026-04-22 19:47 | 59.97812 | 19.23898 | 36152 ft | 488 kts | 274° |
| 2026-04-22 19:47 | 59.97495 | 19.10363 | 36167 ft | 487 kts | 274° |
| 2026-04-22 19:48 | 59.97171 | 18.96854 | 36164 ft | 487 kts | 274° |
| 2026-04-22 19:48 | 59.96846 | 18.83363 | 36137 ft | 486 kts | 273° |
| 2026-04-22 19:49 | 59.96510 | 18.69888 | 36170 ft | 486 kts | 273° |
| 2026-04-22 19:49 | 59.96164 | 18.56499 | 36177 ft | 487 kts | 273° |
| 2026-04-22 19:50 | 59.95801 | 18.43015 | 36180 ft | 488 kts | 272° |
| 2026-04-22 19:50 | 59.95422 | 18.29488 | 36182 ft | 489 kts | 272° |
| 2026-04-22 19:51 | 59.95029 | 18.15934 | 36190 ft | 490 kts | 272° |
| 2026-04-22 19:51 | 59.94620 | 18.02359 | 36187 ft | 490 kts | 272° |
| 2026-04-22 19:52 | 59.94199 | 17.88857 | 36192 ft | 491 kts | 272° |
| 2026-04-22 19:52 | 59.93761 | 17.75239 | 36190 ft | 492 kts | 272° |
| 2026-04-22 19:53 | 59.93309 | 17.61618 | 36197 ft | 493 kts | 272° |
| 2026-04-22 19:53 | 59.92844 | 17.48020 | 36199 ft | 493 kts | 271° |
| 2026-04-22 19:54 | 59.92366 | 17.34468 | 36208 ft | 493 kts | 271° |